sensor_id;sensor_type;location;lat;lon;timestamp;pressure;altitude;pressure_sealevel;temperature;humidity
7075;BME280;3578;51.568;6.932;2023-05-22T00:02:08;52123.97;;;-144.14;100.00
7075;BME280;3578;51.568;6.932;2023-05-22T00:04:35;51995.75;;;-144.14;100.00
7075;BME280;3578;51.568;6.932;2023-05-22T00:07:02;51931.63;;;-144.14;100.00
7075;BME280;3578;51.568;6.932;2023-05-22T00:09:29;51793.41;;;-144.14;100.00
7075;BME280;3578;51.568;6.932;2023-05-22T00:11:56;51695.25;;;-144.14;100.00
7075;BME280;3578;51.568;6.932;2023-05-22T00:14:23;51569.06;;;-144.14;100.00
7075;BME280;3578;51.568;6.932;2023-05-22T00:16:51;51494.94;;;-144.14;100.00
7075;BME280;3578;51.568;6.932;2023-05-22T00:19:20;51418.81;;;-144.14;100.00
7075;BME280;3578;51.568;6.932;2023-05-22T00:21:47;51298.66;;;-144.14;100.00
7075;BME280;3578;51.568;6.932;2023-05-22T00:24:16;51282.63;;;-144.14;100.00
7075;BME280;3578;51.568;6.932;2023-05-22T00:26:42;51210.53;;;-144.14;100.00
7075;BME280;3578;51.568;6.932;2023-05-22T00:29:10;51170.47;;;-144.14;100.00
7075;BME280;3578;51.568;6.932;2023-05-22T00:31:36;51310.66;;;-144.14;100.00
7075;BME280;3578;51.568;6.932;2023-05-22T00:34:05;51537.00;;;-144.14;100.00
7075;BME280;3578;51.568;6.932;2023-05-22T00:36:32;51643.16;;;-144.14;100.00
7075;BME280;3578;51.568;6.932;2023-05-22T00:38:59;52194.09;;;-144.14;100.00
7075;BME280;3578;51.568;6.932;2023-05-22T00:41:26;52358.38;;;-144.14;100.00
7075;BME280;3578;51.568;6.932;2023-05-22T00:43:53;52486.59;;;-144.14;100.00
7075;BME280;3578;51.568;6.932;2023-05-22T00:46:20;52582.78;;;-144.14;100.00
7075;BME280;3578;51.568;6.932;2023-05-22T00:48:47;52510.66;;;-144.14;100.00
7075;BME280;3578;51.568;6.932;2023-05-22T00:51:15;52562.75;;;-144.14;100.00
7075;BME280;3578;51.568;6.932;2023-05-22T00:53:43;52514.66;;;-144.14;100.00
7075;BME280;3578;51.568;6.932;2023-05-22T00:56:10;52506.63;;;-144.14;100.00
7075;BME280;3578;51.568;6.932;2023-05-22T00:58:40;52530.69;;;-144.14;100.00
7075;BME280;3578;51.568;6.932;2023-05-22T01:01:07;52592.78;;;-144.14;100.00
7075;BME280;3578;51.568;6.932;2023-05-22T01:03:36;52642.88;;;-144.14;100.00
7075;BME280;3578;51.568;6.932;2023-05-22T01:06:07;52628.84;;;-144.14;100.00
7075;BME280;3578;51.568;6.932;2023-05-22T01:08:35;52707.00;;;-144.14;100.00
7075;BME280;3578;51.568;6.932;2023-05-22T01:11:12;52745.06;;;-144.14;100.00
7075;BME280;3578;51.568;6.932;2023-05-22T01:13:55;52805.19;;;-144.14;100.00
7075;BME280;3578;51.568;6.932;2023-05-22T01:16:31;52843.25;;;-144.14;100.00
7075;BME280;3578;51.568;6.932;2023-05-22T01:19:17;52827.22;;;-144.14;100.00
7075;BME280;3578;51.568;6.932;2023-05-22T01:25:06;52759.09;;;-144.14;100.00
7075;BME280;3578;51.568;6.932;2023-05-22T01:28:07;52785.16;;;-144.14;100.00
7075;BME280;3578;51.568;6.932;2023-05-22T01:30:57;52713.00;;;-144.14;100.00
7075;BME280;3578;51.568;6.932;2023-05-22T01:33:27;52713.00;;;-144.14;100.00
7075;BME280;3578;51.568;6.932;2023-05-22T01:35:59;52672.94;;;-144.14;100.00
7075;BME280;3578;51.568;6.932;2023-05-22T01:38:28;52701.00;;;-144.14;100.00
7075;BME280;3578;51.568;6.932;2023-05-22T01:40:56;52733.06;;;-144.14;100.00
7075;BME280;3578;51.568;6.932;2023-05-22T01:43:23;52692.97;;;-144.14;100.00
7075;BME280;3578;51.568;6.932;2023-05-22T01:45:50;52658.91;;;-144.14;100.00
7075;BME280;3578;51.568;6.932;2023-05-22T01:48:19;52694.97;;;-144.14;100.00
7075;BME280;3578;51.568;6.932;2023-05-22T01:50:47;52733.06;;;-144.14;100.00
7075;BME280;3578;51.568;6.932;2023-05-22T01:53:23;52660.91;;;-144.14;100.00
7075;BME280;3578;51.568;6.932;2023-05-22T01:56:00;52616.84;;;-144.14;100.00
7075;BME280;3578;51.568;6.932;2023-05-22T01:58:35;52620.84;;;-144.14;100.00
7075;BME280;3578;51.568;6.932;2023-05-22T02:01:03;52705.00;;;-144.14;100.00
7075;BME280;3578;51.568;6.932;2023-05-22T02:03:34;52735.06;;;-144.14;100.00
7075;BME280;3578;51.568;6.932;2023-05-22T02:06:05;52805.19;;;-144.14;100.00
7075;BME280;3578;51.568;6.932;2023-05-22T02:08:34;52773.13;;;-144.14;100.00
7075;BME280;3578;51.568;6.932;2023-05-22T02:11:04;52829.25;;;-144.14;100.00
7075;BME280;3578;51.568;6.932;2023-05-22T02:13:32;52847.28;;;-144.14;100.00
7075;BME280;3578;51.568;6.932;2023-05-22T02:15:59;52747.09;;;-144.14;100.00
7075;BME280;3578;51.568;6.932;2023-05-22T02:18:28;52578.75;;;-144.14;100.00
7075;BME280;3578;51.568;6.932;2023-05-22T02:20:58;52536.69;;;-144.14;100.00
7075;BME280;3578;51.568;6.932;2023-05-22T02:23:25;52524.66;;;-144.14;100.00
7075;BME280;3578;51.568;6.932;2023-05-22T02:25:54;52444.53;;;-144.14;100.00
7075;BME280;3578;51.568;6.932;2023-05-22T02:28:21;52394.44;;;-144.14;100.00
7075;BME280;3578;51.568;6.932;2023-05-22T02:30:48;52412.47;;;-144.14;100.00
7075;BME280;3578;51.568;6.932;2023-05-22T02:33:15;52464.56;;;-144.14;100.00
7075;BME280;3578;51.568;6.932;2023-05-22T02:35:43;52482.59;;;-144.14;100.00
7075;BME280;3578;51.568;6.932;2023-05-22T02:38:11;52486.59;;;-144.14;100.00
7075;BME280;3578;51.568;6.932;2023-05-22T02:40:38;52526.66;;;-144.14;100.00
7075;BME280;3578;51.568;6.932;2023-05-22T02:43:05;52466.56;;;-144.14;100.00
7075;BME280;3578;51.568;6.932;2023-05-22T02:45:32;52496.63;;;-144.14;100.00
7075;BME280;3578;51.568;6.932;2023-05-22T02:47:59;52484.59;;;-144.14;100.00
7075;BME280;3578;51.568;6.932;2023-05-22T02:50:28;52466.56;;;-144.14;100.00
7075;BME280;3578;51.568;6.932;2023-05-22T02:52:55;52420.47;;;-144.14;100.00
7075;BME280;3578;51.568;6.932;2023-05-22T02:55:23;52440.50;;;-144.14;100.00
7075;BME280;3578;51.568;6.932;2023-05-22T02:57:50;52440.50;;;-144.14;100.00
7075;BME280;3578;51.568;6.932;2023-05-22T03:00:19;52416.47;;;-144.14;100.00
7075;BME280;3578;51.568;6.932;2023-05-22T03:02:47;52312.28;;;-144.14;100.00
7075;BME280;3578;51.568;6.932;2023-05-22T03:05:14;52276.22;;;-144.14;100.00
7075;BME280;3578;51.568;6.932;2023-05-22T03:07:42;52292.25;;;-144.14;100.00
7075;BME280;3578;51.568;6.932;2023-05-22T03:10:10;52306.28;;;-144.14;100.00
7075;BME280;3578;51.568;6.932;2023-05-22T03:12:38;52346.34;;;-144.14;100.00
7075;BME280;3578;51.568;6.932;2023-05-22T03:15:06;52290.25;;;-144.14;100.00
7075;BME280;3578;51.568;6.932;2023-05-22T03:17:34;52300.25;;;-144.14;100.00
7075;BME280;3578;51.568;6.932;2023-05-22T03:20:01;52332.31;;;-144.14;100.00
7075;BME280;3578;51.568;6.932;2023-05-22T03:22:30;52258.19;;;-144.14;100.00
7075;BME280;3578;51.568;6.932;2023-05-22T03:24:56;52256.19;;;-144.14;100.00
7075;BME280;3578;51.568;6.932;2023-05-22T03:27:23;52322.31;;;-144.14;100.00
7075;BME280;3578;51.568;6.932;2023-05-22T03:29:52;52286.25;;;-144.14;100.00
7075;BME280;3578;51.568;6.932;2023-05-22T03:32:19;52256.19;;;-144.14;100.00
7075;BME280;3578;51.568;6.932;2023-05-22T03:34:45;52184.06;;;-144.14;100.00
7075;BME280;3578;51.568;6.932;2023-05-22T03:37:12;52164.03;;;-144.14;100.00
7075;BME280;3578;51.568;6.932;2023-05-22T03:39:39;52164.03;;;-144.14;100.00
7075;BME280;3578;51.568;6.932;2023-05-22T03:42:06;52131.97;;;-144.14;100.00
7075;BME280;3578;51.568;6.932;2023-05-22T03:44:33;52107.94;;;-144.14;100.00
7075;BME280;3578;51.568;6.932;2023-05-22T03:47:02;51991.72;;;-144.14;100.00
7075;BME280;3578;51.568;6.932;2023-05-22T03:49:29;51921.63;;;-144.14;100.00
7075;BME280;3578;51.568;6.932;2023-05-22T03:51:56;51971.69;;;-144.14;100.00
7075;BME280;3578;51.568;6.932;2023-05-22T03:54:23;51919.63;;;-144.14;100.00
7075;BME280;3578;51.568;6.932;2023-05-22T03:56:50;51903.59;;;-144.14;100.00
7075;BME280;3578;51.568;6.932;2023-05-22T03:59:17;51863.53;;;-144.14;100.00
7075;BME280;3578;51.568;6.932;2023-05-22T04:01:44;51881.56;;;-144.14;100.00
7075;BME280;3578;51.568;6.932;2023-05-22T04:04:14;51883.56;;;-144.14;100.00
7075;BME280;3578;51.568;6.932;2023-05-22T04:06:42;51865.53;;;-144.14;100.00
7075;BME280;3578;51.568;6.932;2023-05-22T04:09:09;51791.41;;;-144.14;100.00
7075;BME280;3578;51.568;6.932;2023-05-22T04:11:37;51659.19;;;-144.14;100.00
7075;BME280;3578;51.568;6.932;2023-05-22T04:14:05;51621.13;;;-144.14;100.00
7075;BME280;3578;51.568;6.932;2023-05-22T04:16:32;51807.44;;;-144.14;100.00
7075;BME280;3578;51.568;6.932;2023-05-22T04:18:59;51963.69;;;-144.14;100.00
7075;BME280;3578;51.568;6.932;2023-05-22T04:21:29;51925.63;;;-144.14;100.00
7075;BME280;3578;51.568;6.932;2023-05-22T04:23:59;51871.53;;;-144.14;100.00
7075;BME280;3578;51.568;6.932;2023-05-22T04:26:26;51829.47;;;-144.14;100.00
7075;BME280;3578;51.568;6.932;2023-05-22T04:28:56;51759.34;;;-144.14;100.00
7075;BME280;3578;51.568;6.932;2023-05-22T04:31:23;51727.31;;;-144.14;100.00
7075;BME280;3578;51.568;6.932;2023-05-22T04:33:50;51651.19;;;-144.14;100.00
7075;BME280;3578;51.568;6.932;2023-05-22T04:36:19;51583.06;;;-144.14;100.00
7075;BME280;3578;51.568;6.932;2023-05-22T04:38:48;51537.00;;;-144.14;100.00
7075;BME280;3578;51.568;6.932;2023-05-22T04:41:15;51448.88;;;-144.14;100.00
7075;BME280;3578;51.568;6.932;2023-05-22T04:43:43;51428.84;;;-144.14;100.00
7075;BME280;3578;51.568;6.932;2023-05-22T04:46:13;51573.06;;;-144.14;100.00
7075;BME280;3578;51.568;6.932;2023-05-22T04:48:40;51587.09;;;-144.14;100.00
7075;BME280;3578;51.568;6.932;2023-05-22T04:51:07;51739.31;;;-144.14;100.00
7075;BME280;3578;51.568;6.932;2023-05-22T04:53:34;51855.50;;;-144.14;100.00
7075;BME280;3578;51.568;6.932;2023-05-22T04:56:05;51897.56;;;-144.14;100.00
7075;BME280;3578;51.568;6.932;2023-05-22T04:58:32;51937.66;;;-144.14;100.00
7075;BME280;3578;51.568;6.932;2023-05-22T05:00:59;51981.72;;;-144.14;100.00
7075;BME280;3578;51.568;6.932;2023-05-22T05:03:27;51995.75;;;-144.14;100.00
7075;BME280;3578;51.568;6.932;2023-05-22T05:05:55;52091.91;;;-144.14;100.00
7075;BME280;3578;51.568;6.932;2023-05-22T05:08:24;52115.94;;;-144.14;100.00
7075;BME280;3578;51.568;6.932;2023-05-22T05:10:51;52109.94;;;-144.14;100.00
7075;BME280;3578;51.568;6.932;2023-05-22T05:13:19;52053.84;;;-144.14;100.00
7075;BME280;3578;51.568;6.932;2023-05-22T05:15:46;52131.97;;;-144.14;100.00
7075;BME280;3578;51.568;6.932;2023-05-22T05:18:13;52176.03;;;-144.14;100.00
7075;BME280;3578;51.568;6.932;2023-05-22T05:20:40;52208.09;;;-144.14;100.00
7075;BME280;3578;51.568;6.932;2023-05-22T05:23:06;52238.16;;;-144.14;100.00
7075;BME280;3578;51.568;6.932;2023-05-22T05:25:34;52220.13;;;-144.14;100.00
7075;BME280;3578;51.568;6.932;2023-05-22T05:28:03;52280.22;;;-144.14;100.00
7075;BME280;3578;51.568;6.932;2023-05-22T05:30:36;52278.22;;;-144.14;100.00
7075;BME280;3578;51.568;6.932;2023-05-22T05:33:03;52268.22;;;-144.14;100.00
7075;BME280;3578;51.568;6.932;2023-05-22T05:35:31;52320.31;;;-144.14;100.00
7075;BME280;3578;51.568;6.932;2023-05-22T05:37:58;52376.41;;;-144.14;100.00
7075;BME280;3578;51.568;6.932;2023-05-22T05:40:24;52402.44;;;-144.14;100.00
7075;BME280;3578;51.568;6.932;2023-05-22T05:42:51;52436.50;;;-144.14;100.00
7075;BME280;3578;51.568;6.932;2023-05-22T05:45:18;52412.47;;;-144.14;100.00
7075;BME280;3578;51.568;6.932;2023-05-22T05:47:47;52424.47;;;-144.14;100.00
7075;BME280;3578;51.568;6.932;2023-05-22T05:50:13;52484.59;;;-144.14;100.00
7075;BME280;3578;51.568;6.932;2023-05-22T05:52:41;52432.50;;;-144.14;100.00
7075;BME280;3578;51.568;6.932;2023-05-22T05:55:08;52448.53;;;-144.14;100.00
7075;BME280;3578;51.568;6.932;2023-05-22T05:57:35;52542.69;;;-144.14;100.00
7075;BME280;3578;51.568;6.932;2023-05-22T06:00:03;52604.81;;;-144.14;100.00
7075;BME280;3578;51.568;6.932;2023-05-22T06:02:33;52741.06;;;-144.14;99.26
7075;BME280;3578;51.568;6.932;2023-05-22T06:05:02;52829.25;;;-144.14;98.74
7075;BME280;3578;51.568;6.932;2023-05-22T06:07:29;52861.31;;;-144.14;98.53
7075;BME280;3578;51.568;6.932;2023-05-22T06:09:57;52941.44;;;-144.14;97.44
7075;BME280;3578;51.568;6.932;2023-05-22T06:12:24;53013.59;;;-144.14;97.38
7075;BME280;3578;51.568;6.932;2023-05-22T06:14:51;53021.63;;;-144.14;97.42
7075;BME280;3578;51.568;6.932;2023-05-22T06:17:18;53061.69;;;-144.14;97.21
7075;BME280;3578;51.568;6.932;2023-05-22T06:19:45;53027.63;;;-144.14;97.59
7075;BME280;3578;51.568;6.932;2023-05-22T06:22:14;52979.53;;;-144.14;98.47
7075;BME280;3578;51.568;6.932;2023-05-22T06:24:41;52987.53;;;-144.14;97.97
7075;BME280;3578;51.568;6.932;2023-05-22T06:27:08;53067.69;;;-144.14;97.69
7075;BME280;3578;51.568;6.932;2023-05-22T06:29:35;53107.78;;;-144.14;96.93
7075;BME280;3578;51.568;6.932;2023-05-22T06:32:02;53169.91;;;-144.14;96.41
7075;BME280;3578;51.568;6.932;2023-05-22T06:34:29;53228.03;;;-144.14;96.68
7075;BME280;3578;51.568;6.932;2023-05-22T06:36:56;53302.19;;;-144.14;96.31
7075;BME280;3578;51.568;6.932;2023-05-22T06:39:24;53318.22;;;-144.14;95.18
7075;BME280;3578;51.568;6.932;2023-05-22T06:41:51;53418.41;;;-144.14;93.00
7075;BME280;3578;51.568;6.932;2023-05-22T06:44:18;53538.69;;;-144.14;92.92
7075;BME280;3578;51.568;6.932;2023-05-22T06:46:46;53618.84;;;-144.14;93.44
7075;BME280;3578;51.568;6.932;2023-05-22T06:49:13;53759.16;;;-144.14;92.28
7075;BME280;3578;51.568;6.932;2023-05-22T06:51:40;53887.44;;;-144.14;90.87
7075;BME280;3578;51.568;6.932;2023-05-22T06:54:07;54412.66;;;-144.14;86.72
7075;BME280;3578;51.568;6.932;2023-05-22T06:56:38;54871.78;;;-144.14;83.61
7075;BME280;3578;51.568;6.932;2023-05-22T06:59:05;55234.72;;;-144.14;80.52
7075;BME280;3578;51.568;6.932;2023-05-22T07:01:32;55379.09;;;-144.14;79.19
7075;BME280;3578;51.568;6.932;2023-05-22T07:03:59;55389.13;;;-144.14;79.80
7075;BME280;3578;51.568;6.932;2023-05-22T07:06:27;55487.38;;;-144.14;80.54
7075;BME280;3578;51.568;6.932;2023-05-22T07:08:56;55563.59;;;-144.14;76.72
7075;BME280;3578;51.568;6.932;2023-05-22T07:11:23;55589.66;;;-144.14;76.92
7075;BME280;3578;51.568;6.932;2023-05-22T07:13:52;55627.75;;;-144.14;77.78
7075;BME280;3578;51.568;6.932;2023-05-22T07:16:19;55740.06;;;-144.14;78.29
7075;BME280;3578;51.568;6.932;2023-05-22T07:18:46;55707.97;;;-144.14;78.16
7075;BME280;3578;51.568;6.932;2023-05-22T07:21:13;55932.59;;;-144.14;72.45
7075;BME280;3578;51.568;6.932;2023-05-22T07:23:40;55868.44;;;-144.14;75.85
7075;BME280;3578;51.568;6.932;2023-05-22T07:26:07;55707.97;;;-144.14;79.15
7075;BME280;3578;51.568;6.932;2023-05-22T07:28:34;55599.69;;;-144.14;76.73
7075;BME280;3578;51.568;6.932;2023-05-22T07:31:03;55517.47;;;-144.14;78.47
7075;BME280;3578;51.568;6.932;2023-05-22T07:33:30;55419.19;;;-144.14;81.97
7075;BME280;3578;51.568;6.932;2023-05-22T07:35:57;55371.06;;;-144.14;83.73
7075;BME280;3578;51.568;6.932;2023-05-22T07:38:23;55387.09;;;-144.14;82.87
7075;BME280;3578;51.568;6.932;2023-05-22T07:40:51;55322.94;;;-144.14;84.01
7075;BME280;3578;51.568;6.932;2023-05-22T07:43:18;55246.75;;;-144.14;85.58
7075;BME280;3578;51.568;6.932;2023-05-22T07:45:45;55260.78;;;-144.14;86.04
7075;BME280;3578;51.568;6.932;2023-05-22T07:48:13;55290.84;;;-144.14;85.49
7075;BME280;3578;51.568;6.932;2023-05-22T07:50:40;55387.09;;;-144.14;84.95
7075;BME280;3578;51.568;6.932;2023-05-22T07:53:09;55467.31;;;-144.14;83.54
7075;BME280;3578;51.568;6.932;2023-05-22T07:55:37;55513.44;;;-144.14;84.54
7075;BME280;3578;51.568;6.932;2023-05-22T07:58:04;55517.47;;;-144.14;83.10
7075;BME280;3578;51.568;6.932;2023-05-22T08:00:30;55587.66;;;-144.14;81.56
7075;BME280;3578;51.568;6.932;2023-05-22T08:02:57;55569.59;;;-144.14;82.17
7075;BME280;3578;51.568;6.932;2023-05-22T08:05:26;55621.75;;;-144.14;82.87
7075;BME280;3578;51.568;6.932;2023-05-22T08:07:53;55659.84;;;-144.14;81.53
7075;BME280;3578;51.568;6.932;2023-05-22T08:10:19;55683.91;;;-144.14;79.14
7075;BME280;3578;51.568;6.932;2023-05-22T08:12:46;55655.84;;;-144.14;81.09
7075;BME280;3578;51.568;6.932;2023-05-22T08:15:14;55639.78;;;-144.14;79.79
7075;BME280;3578;51.568;6.932;2023-05-22T08:17:41;55667.88;;;-144.14;79.02
7075;BME280;3578;51.568;6.932;2023-05-22T08:20:09;55645.81;;;-144.14;80.67
7075;BME280;3578;51.568;6.932;2023-05-22T08:22:38;55712.00;;;-144.14;81.62
7075;BME280;3578;51.568;6.932;2023-05-22T08:25:06;55750.09;;;-144.14;81.45
7075;BME280;3578;51.568;6.932;2023-05-22T08:27:33;55705.97;;;-144.14;81.00
7075;BME280;3578;51.568;6.932;2023-05-22T08:30:01;55748.09;;;-144.14;81.80
7075;BME280;3578;51.568;6.932;2023-05-22T08:32:28;55736.06;;;-144.14;83.14
7075;BME280;3578;51.568;6.932;2023-05-22T08:34:55;55712.00;;;-144.14;83.08
7075;BME280;3578;51.568;6.932;2023-05-22T08:37:22;55782.19;;;-144.14;81.87
7075;BME280;3578;51.568;6.932;2023-05-22T08:39:50;55744.09;;;-144.14;82.33
7075;BME280;3578;51.568;6.932;2023-05-22T08:42:18;55748.09;;;-144.14;82.32
7075;BME280;3578;51.568;6.932;2023-05-22T08:44:45;55720.00;;;-144.14;81.79
7075;BME280;3578;51.568;6.932;2023-05-22T08:47:14;55681.91;;;-144.14;82.02
7075;BME280;3578;51.568;6.932;2023-05-22T08:49:41;55687.94;;;-144.14;82.81
7075;BME280;3578;51.568;6.932;2023-05-22T08:52:13;55728.03;;;-144.14;81.58
7075;BME280;3578;51.568;6.932;2023-05-22T08:54:51;55724.03;;;-144.14;81.56
7075;BME280;3578;51.568;6.932;2023-05-22T08:57:20;55597.69;;;-144.14;82.05
7075;BME280;3578;51.568;6.932;2023-05-22T08:59:47;55599.69;;;-144.14;83.48
7075;BME280;3578;51.568;6.932;2023-05-22T09:02:16;55633.78;;;-144.14;83.17
7075;BME280;3578;51.568;6.932;2023-05-22T09:04:43;55699.97;;;-144.14;83.02
7075;BME280;3578;51.568;6.932;2023-05-22T09:07:09;55730.03;;;-144.14;83.30
7075;BME280;3578;51.568;6.932;2023-05-22T09:09:37;55782.19;;;-144.14;83.25
7075;BME280;3578;51.568;6.932;2023-05-22T09:12:08;55790.22;;;-144.14;81.74
7075;BME280;3578;51.568;6.932;2023-05-22T09:14:39;55836.34;;;-144.14;81.02
7075;BME280;3578;51.568;6.932;2023-05-22T09:17:07;55812.28;;;-144.14;81.38
7075;BME280;3578;51.568;6.932;2023-05-22T09:19:35;55848.38;;;-144.14;80.72
7075;BME280;3578;51.568;6.932;2023-05-22T09:22:03;55782.19;;;-144.14;81.61
7075;BME280;3578;51.568;6.932;2023-05-22T09:24:34;55752.09;;;-144.14;81.10
7075;BME280;3578;51.568;6.932;2023-05-22T09:27:08;55776.16;;;-144.14;82.27
7075;BME280;3578;51.568;6.932;2023-05-22T09:29:46;55832.31;;;-144.14;82.98
7075;BME280;3578;51.568;6.932;2023-05-22T09:32:15;55880.47;;;-144.14;82.91
7075;BME280;3578;51.568;6.932;2023-05-22T09:34:43;55858.41;;;-144.14;80.21
7075;BME280;3578;51.568;6.932;2023-05-22T09:37:11;55898.50;;;-144.14;80.46
7075;BME280;3578;51.568;6.932;2023-05-22T09:39:39;55930.59;;;-144.14;80.10
7075;BME280;3578;51.568;6.932;2023-05-22T09:42:10;55946.66;;;-144.14;80.23
7075;BME280;3578;51.568;6.932;2023-05-22T09:44:39;55908.53;;;-144.14;82.10
7075;BME280;3578;51.568;6.932;2023-05-22T09:47:09;55942.63;;;-144.14;81.30
7075;BME280;3578;51.568;6.932;2023-05-22T09:49:38;55958.69;;;-144.14;81.24
7075;BME280;3578;51.568;6.932;2023-05-22T09:52:07;55910.53;;;-144.14;80.97
7075;BME280;3578;51.568;6.932;2023-05-22T09:54:39;55928.59;;;-144.14;79.91
7075;BME280;3578;51.568;6.932;2023-05-22T09:57:13;55924.59;;;-144.14;81.21
7075;BME280;3578;51.568;6.932;2023-05-22T09:59:43;55962.69;;;-144.14;80.92
7075;BME280;3578;51.568;6.932;2023-05-22T10:02:13;55972.72;;;-144.14;80.95
7075;BME280;3578;51.568;6.932;2023-05-22T10:04:42;55872.44;;;-144.14;81.58
7075;BME280;3578;51.568;6.932;2023-05-22T10:07:11;55852.38;;;-144.14;81.89
7075;BME280;3578;51.568;6.932;2023-05-22T10:09:40;55870.44;;;-144.14;82.36
7075;BME280;3578;51.568;6.932;2023-05-22T10:12:09;55954.69;;;-144.14;82.33
7075;BME280;3578;51.568;6.932;2023-05-22T10:14:41;55940.63;;;-144.14;80.66
7075;BME280;3578;51.568;6.932;2023-05-22T10:17:08;55934.63;;;-144.14;81.01
7075;BME280;3578;51.568;6.932;2023-05-22T10:19:37;55916.56;;;-144.14;80.61
7075;BME280;3578;51.568;6.932;2023-05-22T10:22:05;55904.53;;;-144.14;81.38
7075;BME280;3578;51.568;6.932;2023-05-22T10:24:33;55842.34;;;-144.14;82.27
7075;BME280;3578;51.568;6.932;2023-05-22T10:27:00;55890.50;;;-144.14;82.95
7075;BME280;3578;51.568;6.932;2023-05-22T10:29:38;55872.44;;;-144.14;82.06
7075;BME280;3578;51.568;6.932;2023-05-22T10:32:12;55920.56;;;-144.14;81.82
7075;BME280;3578;51.568;6.932;2023-05-22T10:34:49;55898.50;;;-144.14;80.48
7075;BME280;3578;51.568;6.932;2023-05-22T10:37:42;55890.50;;;-144.14;80.70
7075;BME280;3578;51.568;6.932;2023-05-22T10:40:13;55924.59;;;-144.14;81.67
7075;BME280;3578;51.568;6.932;2023-05-22T10:42:43;55952.66;;;-144.14;81.85
7075;BME280;3578;51.568;6.932;2023-05-22T10:45:12;55938.63;;;-144.14;79.86
7075;BME280;3578;51.568;6.932;2023-05-22T10:47:40;55886.47;;;-144.14;81.27
7075;BME280;3578;51.568;6.932;2023-05-22T10:50:10;55896.50;;;-144.14;81.27
7075;BME280;3578;51.568;6.932;2023-05-22T10:52:38;55918.56;;;-144.14;81.40
7075;BME280;3578;51.568;6.932;2023-05-22T10:55:06;55876.44;;;-144.14;81.53
7075;BME280;3578;51.568;6.932;2023-05-22T10:57:36;55894.50;;;-144.14;82.48
7075;BME280;3578;51.568;6.932;2023-05-22T11:00:11;55906.53;;;-144.14;83.04
7075;BME280;3578;51.568;6.932;2023-05-22T11:02:42;55914.56;;;-144.14;81.19
7075;BME280;3578;51.568;6.932;2023-05-22T11:05:36;55970.72;;;-144.14;80.26
7075;BME280;3578;51.568;6.932;2023-05-22T11:10:54;56081.03;;;-144.14;80.40
7075;BME280;3578;51.568;6.932;2023-05-22T11:13:25;56022.88;;;-144.14;80.56
7075;BME280;3578;51.568;6.932;2023-05-22T11:15:54;56065.00;;;-144.14;79.96
7075;BME280;3578;51.568;6.932;2023-05-22T11:18:23;56103.09;;;-144.14;79.08
7075;BME280;3578;51.568;6.932;2023-05-22T11:20:50;56056.97;;;-144.14;79.59
7075;BME280;3578;51.568;6.932;2023-05-22T11:23:19;56073.00;;;-144.14;80.32
7075;BME280;3578;51.568;6.932;2023-05-22T11:25:48;56083.03;;;-144.14;80.08
7075;BME280;3578;51.568;6.932;2023-05-22T11:28:15;56008.81;;;-144.14;80.34
7075;BME280;3578;51.568;6.932;2023-05-22T11:30:42;55970.72;;;-144.14;80.17
7075;BME280;3578;51.568;6.932;2023-05-22T11:33:11;56089.06;;;-144.14;81.01
7075;BME280;3578;51.568;6.932;2023-05-22T11:35:39;56145.22;;;-144.14;80.01
7075;BME280;3578;51.568;6.932;2023-05-22T11:38:08;56203.38;;;-144.14;78.44
7075;BME280;3578;51.568;6.932;2023-05-22T11:40:35;56245.50;;;-144.14;78.58
7075;BME280;3578;51.568;6.932;2023-05-22T11:43:02;56259.56;;;-144.14;78.78
7075;BME280;3578;51.568;6.932;2023-05-22T11:45:29;56259.56;;;-144.14;79.63
7075;BME280;3578;51.568;6.932;2023-05-22T11:47:56;56275.59;;;-144.14;80.02
7075;BME280;3578;51.568;6.932;2023-05-22T11:50:24;56301.69;;;-144.14;79.43
7075;BME280;3578;51.568;6.932;2023-05-22T11:52:53;56349.81;;;-144.14;80.11
7075;BME280;3578;51.568;6.932;2023-05-22T11:55:22;56365.88;;;-144.14;79.32
7075;BME280;3578;51.568;6.932;2023-05-22T11:57:49;56401.97;;;-144.14;78.41
7075;BME280;3578;51.568;6.932;2023-05-22T12:00:18;56403.97;;;-144.14;77.76
7075;BME280;3578;51.568;6.932;2023-05-22T12:02:45;56379.91;;;-144.14;77.52
7075;BME280;3578;51.568;6.932;2023-05-22T12:05:12;56309.69;;;-144.14;77.68
7075;BME280;3578;51.568;6.932;2023-05-22T12:07:42;56297.66;;;-144.14;78.23
7075;BME280;3578;51.568;6.932;2023-05-22T12:10:10;56195.38;;;-144.14;78.75
7075;BME280;3578;51.568;6.932;2023-05-22T12:12:37;56261.56;;;-144.14;79.51
7075;BME280;3578;51.568;6.932;2023-05-22T12:15:05;56245.50;;;-144.14;79.65
7075;BME280;3578;51.568;6.932;2023-05-22T12:17:35;56279.59;;;-144.14;80.32
7075;BME280;3578;51.568;6.932;2023-05-22T12:20:03;56315.72;;;-144.14;80.37
7075;BME280;3578;51.568;6.932;2023-05-22T12:22:31;56401.97;;;-144.14;80.16
7075;BME280;3578;51.568;6.932;2023-05-22T12:25:00;56440.09;;;-144.14;78.80
7075;BME280;3578;51.568;6.932;2023-05-22T12:27:29;56488.22;;;-144.14;77.23
7075;BME280;3578;51.568;6.932;2023-05-22T12:29:57;56566.47;;;-144.14;77.16
7075;BME280;3578;51.568;6.932;2023-05-22T12:32:24;56622.63;;;-144.14;78.75
7075;BME280;3578;51.568;6.932;2023-05-22T12:34:51;56682.81;;;-144.14;76.22
7075;BME280;3578;51.568;6.932;2023-05-22T12:37:19;56674.78;;;-144.14;75.34
7075;BME280;3578;51.568;6.932;2023-05-22T12:39:54;56682.81;;;-144.14;77.18
7075;BME280;3578;51.568;6.932;2023-05-22T12:42:23;56652.72;;;-144.14;77.77
7075;BME280;3578;51.568;6.932;2023-05-22T12:44:52;56749.03;;;-144.14;76.22
7075;BME280;3578;51.568;6.932;2023-05-22T12:47:20;56813.22;;;-144.14;77.00
7075;BME280;3578;51.568;6.932;2023-05-22T12:49:47;56897.47;;;-144.14;76.22
7075;BME280;3578;51.568;6.932;2023-05-22T12:52:14;57009.84;;;-144.14;75.13
7075;BME280;3578;51.568;6.932;2023-05-22T12:54:41;56955.66;;;-144.14;72.45
7075;BME280;3578;51.568;6.932;2023-05-22T12:57:08;56925.56;;;-144.14;73.85
7075;BME280;3578;51.568;6.932;2023-05-22T12:59:36;56871.41;;;-144.14;73.23
7075;BME280;3578;51.568;6.932;2023-05-22T13:02:03;56883.44;;;-144.14;73.80
7075;BME280;3578;51.568;6.932;2023-05-22T13:04:31;56897.47;;;-144.14;74.14
7075;BME280;3578;51.568;6.932;2023-05-22T13:06:58;56879.44;;;-144.14;74.29
7075;BME280;3578;51.568;6.932;2023-05-22T13:09:25;56933.59;;;-144.14;74.58